Baltimore/Washington International Thurgood Marshal Airport
KBWI : now visible

Airfield :











YOU CAN JOIN US ON...

 
LOGIN :

Register | Disclaimer

   EN    FR    IT 

 









Legend :    VFR   Marginal VFR   IFR   Intensive IFR   Very Intensive IFR
Visi :
Ceiling :
>= 8 km
>= 3000ft
5 to 8 km
1000 to 3000 ft
1500m to 5 km
500 to 1000 ft
800 to 1500m
200 to 500 ft
< 800m
< 200 ft
Symbols :   Thunderstorms  Fog  Heavy snow  Heavy precipitations  Wind > 20 kt







- Airport Elevation : 146 ft
- IATA code : BWI


KBWI - Baltimore/Washington International Thurgood Marshal

CURRENT METAR :
  • 152054Z 21010G20KT 10SM FEW070 SCT140 BKN200 17/04 A2962 RMK AO2 SLP030 T01720039 55014

EXPIRED METARs :
  • 151954Z 21012KT 10SM FEW070 FEW110 SCT140 BKN200 18/04 A2962 RMK AO2 SLP030 T01830039
  • 151854Z 21010G17KT 10SM FEW065 FEW095 SCT140 BKN200 BKN250 18/03 A2963 RMK AO2 SLP033 T01830028
  • 151754Z 21009KT 10SM FEW095 SCT140 BKN250 18/02 A2966 RMK AO2 SLP044 T01780022 10178 20106 58027

TAF KBWI
Valid from the 15 at 21:00 until the 17 at 00:00 UTC


152057Z 1521/1624 22012G20KT P6SM SCT070 BKN200
FM152300 27007KT P6SM SCT050 OVC130
FM160300 32008KT P6SM SCT050 OVC130
FM161900 35008KT P6SM SCT130
KZDC FIR / North America



MET'MAP, your aeronautical weather chart ! - Copyright ORBIFLY December 2007 - Disclaimer

ORBIFLY MET'MAP TEAM :

Programming & Development : Alexandra Zaïnal
Concept & Development : Baudouin d'Aumeries
Co-Development & Prog : Marc-Olivier Méhu
Technical & hardware support : Manuel Goepfert

Contact : metmap@orbifly.com




SOURCES & CREDITS :

   NOAA       Earth
Advisory